Home > Products > Valid Products > TAF

000
FTUS46 KSEW 171800 AAA
TAFHQM
TAF AMD
KHQM 171817Z 1718/1818 19013KT 6SM -RA BR SCT009 BKN022 OVC050
      TEMPO 1718/1720 19018G27KT 2SM RA BR BKN009 OVC015
     FM172000 22015G25KT P6SM -SHRA BKN028 OVC050
      TEMPO 1720/1724 4SM SHRA OVC020
     FM180000 25015KT P6SM -SHRA BKN035 BKN050
      TEMPO 1800/1802 25015G25KT
     FM180600 28009KT P6SM FEW018 SCT035 SCT050=



000
FTUS46 KSEW 171800 AAA
TAFOLM
TAF AMD
KOLM 171817Z 1718/1818 20010KT 4SM -RA BR SCT008 SCT020 OVC050
      TEMPO 1718/1721 2SM RA BR BKN008 OVC020
     FM172100 23013G22KT P6SM -SHRA SCT015 BKN028 OVC050
      TEMPO 1721/1801 4SM SHRA BKN015 OVC030
     FM180300 23012KT P6SM BKN035 BKN050 PROB30 1803/1809 -SHRA
     FM180900 20008KT P6SM SCT035 SCT050=



000
FTUS46 KSEW 171700 AAA
TAFCLM
TAF AMD
KCLM 171757Z 1718/1818 VRB03KT P6SM VCSH SCT004 SCT050 OVC130
      TEMPO 1718/1720 BKN004 BKN050 OVC130
     FM172000 32008KT P6SM -SHRA SCT004 BKN020 OVC050
      TEMPO 1720/1722 5SM SHRA BKN004 OVC020
     FM172200 28013KT P6SM VCSH SCT028 BKN050
      TEMPO 1722/1724 28013G23KT -SHRA
     FM180000 28017G25KT P6SM VCSH SCT035 SCT050
     FM180900 26013KT P6SM SCT050=



000
FTUS46 KSEW 171700 RRA
TAFCLM
TAF
KCLM 171747Z 1718/1818 VRB03KT P6SM VCSH FEW025 SCT050 OVC130
     FM172000 32008KT P6SM -SHRA SCT020 OVC050
      TEMPO 1720/1722 5SM SHRA OVC020
     FM172200 28013KT P6SM VCSH SCT028 BKN050
      TEMPO 1722/1724 28013G23KT -SHRA
     FM180000 28017G25KT P6SM VCSH SCT035 SCT050
     FM180900 26013KT P6SM SCT050=



000
FTUS46 KSEW 171700 RRA
TAFHQM
TAF
KHQM 171747Z 1718/1818 20012KT 4SM -RA BR SCT006 BKN035 OVC050
      TEMPO 1718/1719 2SM RA BR BKN006 OVC015
     FM171900 18012G20KT 5SM -RA SCT006 BKN012 OVC020
     FM172100 25016G26KT P6SM -SHRA SCT015 BKN025 OVC040
     FM180200 25012KT P6SM SCT025 BKN040=



000
FTUS46 KSEW 171700 RRA
TAFOLM
TAF
KOLM 171747Z 1718/1818 19009KT 4SM -RA BR SCT007 BKN020 OVC050
      TEMPO 1718/1719 2SM -RA BR BKN007 OVC015
     FM172300 22012G22KT P6SM -SHRA SCT015 BKN025 OVC040
     FM180400 22012KT P6SM SCT030 BKN050=



000
FTUS46 KSEW 171700 RRA
TAFSEA
TAF
KSEA 171747Z 1718/1824 19013KT 5SM -RA BR SCT005 BKN025 OVC050
      TEMPO 1718/1722 2SM RA BR SCT005 OVC015
     FM172200 22015G25KT P6SM -SHRA SCT015 BKN028 OVC050
      TEMPO 1722/1802 4SM SHRA BKN015 OVC030
     FM180300 22013G22KT P6SM SCT030 BKN050 PROB30 1803/1809 -SHRA
     FM180900 19011KT P6SM SCT030 SCT050
     FM181800 23009KT P6SM SCT050=



000
FTUS46 KSEW 171700 RRA
TAFBLI
TAF
KBLI 171747Z 1718/1818 15008KT P6SM -RA FEW009 SCT025 OVC040
      TEMPO 1720/1722 15012G20KT 4SM -RA BR SCT009 OVC025
     FM172200 17013G22KT P6SM -SHRA SCT025 OVC040
      TEMPO 1722/1802 4SM SHRA OVC020
     FM180200 19013G22KT P6SM SCT030 BKN050 PROB30 1803/1806 -SHRA
     FM180600 17013KT P6SM BKN035 BKN050 PROB30 1806/1812 -SHRA=



000
FTUS46 KSEW 171700 RRA
TAFPAE
TAF
KPAE 171747Z 1718/1818 17010KT P6SM -RA SCT008 BKN022 OVC050
      TEMPO 1718/1722 17015G25KT 2SM -RA BR BKN008 OVC015
     FM172200 19017G27KT P6SM -SHRA SCT012 BKN025 OVC050
      TEMPO 1722/1802 4SM SHRA BKN015 OVC030
     FM180200 22010KT P6SM -SHRA SCT006 OVC020
     FM180400 33010KT 4SM SHRA BKN006 OVC012
     FM180600 VRB04KT 2SM -SHRA BR OVC006=



000
FTUS46 KSEW 171700 RRA
TAFBFI
TAF
KBFI 171747Z 1718/1818 15010KT 6SM -RA BR SCT009 BKN025 OVC050
      TEMPO 1718/1722 3SM RA BR SCT009 OVC018
     FM172200 19013G23KT P6SM -SHRA SCT018 BKN035 OVC050
      TEMPO 1722/1802 4SM SHRA BKN018 OVC030
     FM180300 19013KT P6SM BKN035 BKN050 PROB30 1803/1809 -SHRA
     FM180900 17008KT P6SM SCT035 BKN050=



000
FTUS46 KSEW 171600 AAC
TAFHQM
TAF AMD
KHQM 171643Z 1717/1812 20012KT 4SM -RA BR SCT006 BKN035 OVC050
      TEMPO 1717/1719 2SM RA BR BKN006 OVC015
     FM171900 18012G20KT 5SM -RA SCT006 BKN012 OVC020
     FM172100 25016G26KT P6SM -SHRA SCT015 BKN025 OVC040
     FM180200 25012KT P6SM SCT025 BKN040=



000
FTUS46 KSEW 171600 AAC
TAFPAE
TAF AMD
KPAE 171642Z 1717/1812 17011KT 6SM -RA BR SCT008 OVC050
      TEMPO 1717/1719 2SM -RA BR BKN008 OVC050
     FM171900 17014G24KT P6SM -RA BKN012 OVC020
     FM172200 19012KT P6SM -SHRA SCT012 BKN022 OVC040
     FM180200 VRB03KT 4SM -SHRA BKN008 OVC015
     FM180700 34006KT P6SM SCT020 BKN040=



000
FTUS46 KSEW 171500 AAB
TAFHQM
TAF AMD
KHQM 171519Z 1715/1812 20012KT 4SM -RA BR SCT008 BKN015 OVC050
      TEMPO 1715/1718 2SM RA BR BKN008 OVC015
     FM171800 18012G20KT 5SM -RA SCT006 BKN012 OVC020
     FM172100 25016G26KT P6SM -SHRA SCT015 BKN025 OVC040
     FM180200 25012KT P6SM SCT025 BKN040=



000
FTUS46 KSEW 171500 AAA
TAFOLM
TAF AMD
KOLM 171518Z 1715/1812 19009KT 5SM -RA BR SCT007 BKN022 OVC050
      TEMPO 1715/1719 2SM -RA BR BKN007 OVC015
     FM172300 22012G22KT P6SM -SHRA SCT015 BKN025 OVC040
     FM180400 22012KT P6SM SCT030 BKN050=



000
FTUS46 KSEW 171500 AAA
TAFBLI
TAF AMD
KBLI 171517Z 1715/1812 14008KT 6SM -RA BR FEW011 SCT025 OVC050
      TEMPO 1715/1718 FEW011 BKN025 OVC050
     FM171800 16012KT P6SM -RA SCT020 OVC035
     FM171900 16012G22KT P6SM -RA BKN022 OVC035
     FM172200 19014KT P6SM -SHRA BKN022 OVC035
     FM180500 19010KT P6SM SCT025 BKN040=



000
FTUS46 KSEW 171500 AAA
TAFBFI
TAF AMD
KBFI 171516Z 1715/1812 15010KT P6SM -RA SCT008 BKN020 OVC050
      TEMPO 1715/1718 5SM -RA BR BKN008 OVC020
     FM171800 17008KT P6SM -RA SCT011 BKN020 OVC030
     FM172300 19012G20KT P6SM -SHRA SCT020 BKN030 OVC045
     FM180300 22012KT P6SM SCT025 BKN040=



000
FTUS46 KSEW 171500 AAA
TAFSEA
TAF AMD
KSEA 171514Z 1715/1818 17008KT P6SM -RA SCT005 OVC015
      TEMPO 1715/1718 5SM -RA BR BKN005 OVC015
     FM171800 19010KT P6SM -RA SCT006 BKN012 OVC025
     FM172300 22014G24KT P6SM -SHRA SCT015 BKN025 OVC040
     FM180300 22012KT P6SM SCT025 BKN040=



000
FTUS46 KSEW 171400 AAB
TAFPAE
TAF AMD
KPAE 171419Z 1714/1812 17010KT P6SM -RA SCT006 BKN025 OVC050
      TEMPO 1714/1717 6SM -RA BR BKN006 OVC015
     FM171700 17013G23KT 4SM -RA SCT006 OVC012
     FM171900 17014G24KT P6SM -RA BKN012 OVC020
     FM172200 19012KT P6SM -SHRA SCT012 BKN022 OVC040
     FM180200 VRB03KT 4SM -SHRA BKN008 OVC015
     FM180700 34006KT P6SM SCT020 BKN040=



000
FTUS46 KSEW 171400 AAA
TAFCLM
TAF AMD
KCLM 171417Z 1714/1812 VRB03KT P6SM SCT015 OVC060
      TEMPO 1714/1717 -RA BKN015 OVC060
     FM171700 VRB03KT 5SM -RA BR SCT007 OVC015
      TEMPO 1717/1719 2SM -RA BR BKN007 OVC015
     FM172100 29010KT P6SM -SHRA SCT015 BKN025 OVC040
     FM180200 29010KT P6SM SCT025 BKN040=



000
FTUS46 KSEW 171400 AAA
TAFHQM
TAF AMD
KHQM 171413Z 1714/1812 18010KT 4SM -RA BR SCT009 BKN015 OVC050
      TEMPO 1714/1717 2SM RA BR BKN009 OVC015
     FM171700 18012G20KT 5SM -RA SCT006 BKN012 OVC020
     FM172100 25016G26KT P6SM -SHRA SCT015 BKN025 OVC040
     FM180200 25012KT P6SM SCT025 BKN040=



000
FTUS46 KSEW 171300 AAA
TAFPAE
TAF AMD
KPAE 171301Z 1713/1812 18008KT P6SM -RA SCT007 BKN030 OVC050
     FM171900 16014G24KT P6SM -RA BKN012 OVC020
     FM172200 19012KT P6SM -SHRA SCT012 BKN022 OVC040
     FM180200 VRB03KT 4SM -SHRA BKN008 OVC015
     FM180700 34006KT P6SM SCT020 BKN040=



000
FTUS46 KSEW 171100
TAFSEA
TAF
KSEA 171128Z 1712/1818 19010KT P6SM -RA SCT006 OVC012
      TEMPO 1712/1716 BKN006 OVC012
     FM171600 19010KT P6SM -RA SCT006 BKN012 OVC025
     FM172300 22014G24KT P6SM -SHRA SCT015 BKN025 OVC040
     FM180300 22012KT P6SM SCT025 BKN040=



000
FTUS46 KSEW 171100
TAFCLM
TAF
KCLM 171128Z 1712/1812 VRB03KT P6SM -RA OVC050
     FM172100 29010KT P6SM -SHRA SCT015 BKN025 OVC040
     FM180200 29010KT P6SM SCT025 BKN040=



000
FTUS46 KSEW 171100
TAFBLI
TAF
KBLI 171128Z 1712/1812 16012KT P6SM SCT035 OVC060
     FM171600 16012KT P6SM -RA SCT020 OVC035
     FM171900 16012G22KT P6SM -RA BKN022 OVC035
     FM172200 19014KT P6SM -SHRA BKN022 OVC035
     FM180500 19010KT P6SM SCT025 BKN040=



000
FTUS46 KSEW 171100
TAFBFI
TAF
KBFI 171128Z 1712/1812 17008KT P6SM -RA BKN011 OVC020
     FM171600 17008KT P6SM -RA SCT011 BKN020 OVC030
     FM172300 19012G20KT P6SM -SHRA SCT020 BKN030 OVC045
     FM180300 22012KT P6SM SCT025 BKN040=



000
FTUS46 KSEW 171100
TAFPAE
TAF
KPAE 171128Z 1712/1812 19010KT 3SM -RA BKN004 OVC008
     FM171500 16008KT 5SM -RA BKN006 OVC012
     FM171700 16012KT 5SM -RA SCT006 BKN012 OVC020
     FM171900 16014G24KT P6SM -RA BKN012 OVC020
     FM172200 19012KT P6SM -SHRA SCT012 BKN022 OVC040
     FM180200 VRB03KT 4SM -SHRA BKN008 OVC015
     FM180700 34006KT P6SM SCT020 BKN040=



000
FTUS46 KSEW 171100
TAFOLM
TAF
KOLM 171128Z 1712/1812 18008KT 5SM -RA SCT006 BKN012 OVC020
      TEMPO 1712/1716 2SM -RA BKN006 OVC012
     FM172300 22012G22KT P6SM -SHRA SCT015 BKN025 OVC040
     FM180400 22012KT P6SM SCT030 BKN050=



000
FTUS46 KSEW 171100
TAFHQM
TAF
KHQM 171128Z 1712/1812 18010KT 5SM -RA BKN006 OVC012
     FM171700 18012G20KT 5SM -RA SCT006 BKN012 OVC020
     FM172100 25016G26KT P6SM -SHRA SCT015 BKN025 OVC040
     FM180200 25012KT P6SM SCT025 BKN040=



000
FTUS46 KSEW 170900 AAA
TAFSEA
TAF AMD
KSEA 170910Z 1709/1812 17008KT P6SM -RA SCT014 OVC022
     FM171400 17008KT P6SM -RA BKN014 OVC025
     FM172300 22014G24KT P6SM -SHRA SCT015 BKN025 OVC040
     FM180500 22012KT P6SM SCT025 BKN040=



000
FTUS46 KSEW 170500
TAFBLI
TAF
KBLI 170536Z 1706/1806 14006KT 5SM -RA OVC015
     FM171500 15014G24KT P6SM -RA SCT015 OVC025
     FM172200 19014KT P6SM -SHRA BKN025 OVC040=



000
FTUS46 KSEW 170500
TAFSEA
TAF
KSEA 170536Z 1706/1812 17008KT P6SM -RA SCT014 OVC025
     FM171400 17008KT P6SM -RA BKN014 OVC025
     FM172300 22014G24KT P6SM -SHRA SCT015 BKN025 OVC040
     FM180500 22012KT P6SM SCT025 BKN040=



000
FTUS46 KSEW 170500
TAFBFI
TAF
KBFI 170536Z 1706/1806 15008KT P6SM -RA SCT018 OVC030
     FM171400 15008KT P6SM -RA BKN020 OVC030
     FM172300 19012G20KT P6SM -SHRA SCT020 BKN030 OVC045
     FM180500 22012KT P6SM SCT025 BKN040=



000
FTUS46 KSEW 170500
TAFPAE
TAF
KPAE 170536Z 1706/1806 16012KT 5SM -RA BKN006 OVC012
     FM171000 16012KT 5SM -RA SCT006 BKN012 OVC020
     FM171800 16018G28KT 5SM -RA SCT006 BKN012 OVC020
     FM172200 19012KT P6SM -SHRA BKN022 OVC040
     FM180200 VRB03KT 4SM -SHRA BKN008 OVC015=



000
FTUS46 KSEW 170500
TAFCLM
TAF
KCLM 170536Z 1706/1806 VRB03KT P6SM -RA SCT015 OVC050
      TEMPO 1706/1710 4SM -RA BKN015 OVC050
     FM172100 29010KT P6SM -SHRA SCT015 BKN025 OVC040
     FM180200 29010KT P6SM SCT025 BKN040=



000
FTUS46 KSEW 170500
TAFHQM
TAF
KHQM 170536Z 1706/1806 18012KT 2SM -RA OVC006
     FM171600 18014G24KT 4SM -RA SCT006 BKN012 OVC020
     FM172100 25016G26KT P6SM -SHRA SCT015 BKN025 OVC040
     FM180200 25012KT P6SM SCT025 BKN040=



000
FTUS46 KSEW 170500
TAFOLM
TAF
KOLM 170536Z 1706/1806 18008KT 4SM -RA SCT008 BKN015 OVC030
      TEMPO 1706/1710 2SM -RA BKN008 OVC015
     FM172300 22012G22KT P6SM -SHRA SCT015 BKN025 OVC040
     FM180400 22012KT P6SM SCT030 BKN050=



000
FTUS46 KSEW 170500 AAA
TAFPAE
TAF AMD
KPAE 170508Z 1705/1724 16012KT 5SM -RA BKN006 OVC012
     FM171000 16012KT 5SM -RA SCT006 BKN012 OVC020
     FM171800 17018G28KT 5SM -RA BR BKN015 OVC030
     FM172200 19013KT P6SM -SHRA BKN022 OVC050=



000
FTUS46 KSEW 170300 AAA
TAFBFI
TAF AMD
KBFI 170310Z 1703/1724 17008KT P6SM OVC035
     FM170600 15006KT 5SM -RA BR FEW013 OVC025
     FM171800 17013KT P6SM -RA SCT018 OVC030
     FM172200 20013KT P6SM -SHRA BKN030 OVC050=



000
FTUS46 KSEW 170300 AAA
TAFSEA
TAF AMD
KSEA 170309Z 1703/1806 17008KT P6SM OVC030
     FM170600 17008KT 5SM -RA BR FEW009 OVC020
     FM171800 20013KT P6SM -RA SCT015 OVC028
     FM172200 22014G23KT P6SM -SHRA BKN028 OVC050
     FM180200 22012KT P6SM SCT028 BKN050 PROB30 1802/1806 -SHRA
      OVC028=



000
FTUS46 KSEW 170000 AAA
TAFBLI
TAF AMD
KBLI 170004Z 1700/1724 15013KT P6SM -RA BKN022 OVC050
     FM170600 15009KT 5SM -RA BR OVC018
     FM171200 15009KT 4SM -RA BR SCT009 OVC012
     FM171800 17015G23KT P6SM -RA BKN020 OVC035
     FM172200 19015G23KT P6SM -SHRA BKN030 OVC050=



000
FTUS46 KSEW 170000 AAA
TAFHQM
TAF AMD
KHQM 170002Z 1700/1724 17013KT 4SM -RA BR FEW008 OVC015
      TEMPO 1700/1704 2SM -RA BR FEW008 OVC015
     FM170500 17009KT 3SM -RA BR FEW008 OVC015
     FM170900 15009KT 2SM RA BR BKN008 OVC012
     FM171800 18017G28KT 4SM -RA BR BKN015 OVC030
     FM172000 21017G28KT P6SM -SHRA BKN025 OVC050=



000
FTUS46 KSEW 170000 AAA
TAFOLM
TAF AMD
KOLM 170002Z 1700/1724 19009KT 5SM -RA BR BKN015 OVC030
     FM170600 19006KT 3SM -RA BR SCT009 OVC015
     FM171800 21010KT 5SM -RA BR BKN015 OVC030
     FM172100 23013G23KT P6SM -SHRA BKN025 OVC050=



000
FTUS46 KSEW 170000 AAA
TAFCLM
TAF AMD
KCLM 170002Z 1700/1724 VRB03KT P6SM VCSH SCT035 OVC060
      TEMPO 1702/1706 -RA BKN035 OVC060
     FM170600 VRB03KT 5SM -RA BR SCT011 OVC030
     FM170900 VRB03KT 2SM -RA BR SCT005 OVC011
     FM171800 VRB03KT 5SM -RA BR BKN015 OVC030
     FM172100 31008KT P6SM -SHRA BKN028 OVC050=



000
FTUS46 KSEW 162300 RRA
TAFBFI
TAF
KBFI 162342Z 1700/1724 17008KT P6SM -RA SCT018 BKN035 OVC050
      TEMPO 1702/1706 BKN018 OVC035
     FM170600 15006KT 5SM -RA BR FEW013 OVC025
     FM171800 17013KT P6SM -RA SCT018 OVC030
     FM172200 20013KT P6SM -SHRA BKN030 OVC050=



000
FTUS46 KSEW 162300 RRA
TAFBLI
TAF
KBLI 162342Z 1700/1724 15009KT P6SM -RA BKN022 OVC050
     FM170600 15009KT 5SM -RA BR OVC018
     FM171200 15009KT 4SM -RA BR SCT009 OVC012
     FM171800 17015G23KT P6SM -RA BKN020 OVC035
     FM172200 19015G23KT P6SM -SHRA BKN030 OVC050=



000
FTUS46 KSEW 162300 RRA
TAFCLM
TAF
KCLM 162342Z 1700/1724 VRB03KT P6SM VCSH SCT035 BKN070 OVC130
     FM170600 VRB03KT P6SM -RA SCT012 OVC035
     FM170900 VRB03KT 4SM -RA BR SCT005 OVC012=



000
FTUS46 KSEW 162300 RRA
TAFHQM
TAF
KHQM 162342Z 1700/1724 17013KT 3SM -RA BR SCT009 OVC015
     FM170100 17010KT 5SM -RA BR FEW009 BKN015 OVC030
     FM170600 15010KT 2SM RA BR BKN009 OVC015
     FM171200 15013KT 4SM -RA BR SCT009 BKN015 OVC028=



000
FTUS46 KSEW 162300 RRA
TAFSEA
TAF
KSEA 162342Z 1700/1806 19010KT P6SM -RA SCT015 BKN030 OVC050
      TEMPO 1702/1706 5SM -RA BR BKN015 OVC030
     FM170600 17008KT 5SM -RA BR FEW009 OVC020
     FM171800 20013KT P6SM -RA SCT015 OVC028
     FM172200 22014G23KT P6SM -SHRA BKN028 OVC050
     FM180200 22012KT P6SM SCT028 BKN050 PROB30 1802/1806 -SHRA
      OVC028=



000
FTUS46 KSEW 162300 RRA
TAFPAE
TAF
KPAE 162342Z 1700/1724 18013KT P6SM -RA SCT018 OVC050
      TEMPO 1700/1704 6SM -RA BR BKN018 OVC050
     FM170800 17010KT 4SM -RA BR FEW007 OVC015
     FM171800 17018G28KT 5SM -RA BR BKN015 OVC030
     FM172200 19013KT P6SM -SHRA BKN022 OVC050=



000
FTUS46 KSEW 162300 RRA
TAFOLM
TAF
KOLM 162342Z 1700/1724 19011KT 5SM -RA BR BKN015 OVC030
     FM170100 21009KT 5SM -RA BR SCT015 BKN030 OVC050
     FM170600 19006KT 2SM -RA BR SCT006 OVC015=



000
FTUS46 KSEW 162300 AAC
TAFOLM
TAF AMD
KOLM 162301Z 1623/1718 19011KT 5SM -RA BR BKN015 OVC030
     FM170100 21009KT 5SM -RA BR SCT015 BKN030 OVC050
     FM170600 19006KT 2SM -RA BR SCT006 OVC015=



000
FTUS46 KSEW 162300 AAB
TAFHQM
TAF AMD
KHQM 162300Z 1623/1718 17013KT 3SM -RA BR SCT009 OVC015
     FM170100 17010KT 5SM -RA BR FEW009 BKN015 OVC030
     FM170600 15010KT 2SM RA BR BKN009 OVC015
     FM171200 15013KT 4SM -RA BR SCT009 BKN015 OVC028=



000
FTUS46 KSEW 162200 AAB
TAFBLI
TAF AMD
KBLI 162213Z 1622/1718 14008KT P6SM -RA SCT022 OVC050
      TEMPO 1622/1624 BKN022 OVC050
     FM170000 14008KT P6SM -RA BKN030 OVC060
     FM170600 15010KT 5SM -RA BR SCT009 OVC018=



000
FTUS46 KSEW 162200 AAC
TAFBFI
TAF AMD
KBFI 162206Z 1622/1718 17013KT P6SM -RA SCT015 BKN040 OVC060
      TEMPO 1622/1624 BKN015 OVC030
     FM170000 19010KT P6SM -RA FEW022 BKN040 OVC060
     FM170600 16007KT 6SM -RA BR FEW012 OVC022=



000
FTUS46 KSEW 162100 AAB
TAFOLM
TAF AMD
KOLM 162100Z 1621/1718 20011KT 6SM -RA BR BKN015 OVC030
      TEMPO 1621/1622 2SM -RA BR
     FM170000 21009KT 5SM -RA BR SCT015 BKN030 OVC050
     FM170600 19006KT 2SM -RA BR SCT006 OVC015=



000
FTUS46 KSEW 162000 AAB
TAFPAE
TAF AMD
KPAE 162058Z 1621/1718 18014KT P6SM SCT020 OVC060
      TEMPO 1621/1624 18015G25KT -RA BKN020 OVC060
     FM170000 17012KT P6SM FEW015 BKN030 OVC050
     FM170600 17010KT 5SM -RA BR FEW007 OVC018=



000
FTUS46 KSEW 162000 AAA
TAFSEA
TAF AMD
KSEA 162052Z 1621/1724 20011KT P6SM -RA FEW012 BKN025 OVC050
      TEMPO 1621/1624 FEW012 BKN035 OVC050
     FM170000 20011KT P6SM -RA FEW018 BKN035 OVC060
     FM170600 17008KT 5SM -RA BR FEW009 OVC020
     FM171800 20013KT P6SM -RA SCT015 OVC028=



000
FTUS46 KSEW 162000 AAB
TAFBFI
TAF AMD
KBFI 162021Z 1620/1718 17013KT P6SM -RA SCT015 BKN040 OVC060
     FM170000 19010KT P6SM -RA FEW022 BKN040 OVC060
     FM170600 16007KT 6SM -RA BR FEW012 OVC022=



000
FTUS46 KSEW 161900 AAA
TAFBFI
TAF AMD
KBFI 161919Z 1619/1718 17013KT P6SM -RA SCT015 BKN030 OVC060
     FM170000 19010KT P6SM -RA FEW022 BKN040 OVC060
     FM170600 16007KT 6SM -RA BR FEW012 OVC022=



000
FTUS46 KSEW 161800 AAA
TAFOLM
TAF AMD
KOLM 161835Z 1619/1718 21011KT 6SM -RA BR SCT008 BKN015 OVC030
      TEMPO 1619/1622 2SM -RA BR BKN008 OVC015
     FM170000 21009KT 5SM -RA BR SCT015 BKN030 OVC050
     FM170600 19006KT 2SM -RA BR SCT006 OVC015=



000
FTUS46 KSEW 161800 AAA
TAFPAE
TAF AMD
KPAE 161835Z 1619/1718 18014KT P6SM -RA FEW009 OVC015
     FM162100 18014KT P6SM SCT015 OVC028
      TEMPO 1621/1624 -RA BKN015 OVC028
     FM170000 17012KT P6SM FEW015 BKN030 OVC050
     FM170600 17010KT 5SM -RA BR FEW007 OVC018=



000
FTUS46 KSEW 161800 AAA
TAFCLM
TAF AMD
KCLM 161835Z 1619/1718 VRB03KT P6SM VCSH SCT035 BKN070 OVC130
      TEMPO 1619/1622 -RA BKN035 OVC050
     FM170600 VRB03KT P6SM -RA SCT012 OVC035
     FM170900 VRB03KT 4SM -RA BR SCT005 OVC012=



000
FTUS46 KSEW 161800 AAA
TAFHQM
TAF AMD
KHQM 161835Z 1619/1718 19010KT 3SM -RA BR SCT009 OVC015
      TEMPO 1619/1622 2SM -RA BR BKN009 OVC015
     FM170000 17010KT 5SM -RA BR FEW009 BKN015 OVC030
     FM170600 15010KT 2SM RA BR BKN009 OVC015
     FM171200 15013KT 4SM -RA BR SCT009 BKN015 OVC028=



000
FTUS46 KSEW 161800 AAA
TAFBLI
TAF AMD
KBLI 161835Z 1619/1718 14008KT 6SM -RA BR BKN015 OVC030
     FM162000 14008KT P6SM -RA BKN022 OVC050
     FM170000 14008KT P6SM -RA BKN030 OVC060
     FM170600 15010KT 5SM -RA BR SCT009 OVC018=



000
FTUS46 KSEW 161700 RRA
TAFCLM
TAF
KCLM 161745Z 1618/1718 07004KT P6SM -RA SCT015 OVC030
     FM170100 26006KT P6SM -RA OVC025=



000
FTUS46 KSEW 161700 RRA
TAFSEA
TAF
KSEA 161745Z 1618/1724 20011KT P6SM -RA FEW012 BKN025 OVC060
      TEMPO 1618/1620 FEW012 BKN035 OVC060
     FM170000 20011KT P6SM -RA FEW018 BKN035 OVC060
     FM170600 17008KT 5SM -RA BR FEW009 OVC020
     FM171800 20013KT P6SM -RA SCT015 OVC028=



000
FTUS46 KSEW 161700 RRA
TAFPAE
TAF
KPAE 161745Z 1618/1718 18014KT P6SM -RA SCT008 OVC013
      TEMPO 1618/1619 5SM -RA BR OVC008
     FM170300 19012KT 6SM -RA BR OVC018=



000
FTUS46 KSEW 161700 RRA
TAFBFI
TAF
KBFI 161745Z 1618/1718 17010KT P6SM -RA SCT015 BKN030 OVC060
     FM170000 19010KT P6SM -RA FEW022 BKN040 OVC060
     FM170600 16007KT 6SM -RA BR FEW012 OVC022=



000
FTUS46 KSEW 161700 RRA
TAFOLM
TAF
KOLM 161745Z 1618/1718 19007KT 5SM BR SCT010 SCT022 OVC050
      TEMPO 1618/1619 2SM -RA BR SCT010 OVC022
     FM161900 20012KT P6SM -RA BKN015 OVC030
     FM170200 20010KT 6SM -RA BR OVC028=



000
FTUS46 KSEW 161700 RRA
TAFHQM
TAF
KHQM 161745Z 1618/1718 23012KT 4SM -RA BR SCT005 OVC011
     FM170300 22012KT P6SM -RA BKN012 OVC022=



000
FTUS46 KSEW 161700 RRA
TAFBLI
TAF
KBLI 161745Z 1618/1718 16007KT 6SM -RA BR SCT015 OVC050
      TEMPO 1618/1619 BKN015 OVC050
     FM170500 16007KT P6SM -RA OVC018=



000
FTUS46 KSEW 161600 AAB
TAFOLM
TAF AMD
KOLM 161650Z 1617/1712 19007KT 5SM BR SCT010 SCT022 OVC050
      TEMPO 1617/1619 2SM -RA BR SCT010 OVC022
     FM161900 20012KT P6SM -RA BKN015 OVC030
     FM170200 20010KT 6SM -RA BR OVC028=



000
FTUS46 KSEW 161600 AAA
TAFBLI
TAF AMD
KBLI 161649Z 1617/1712 16007KT 6SM -RA BR SCT015 OVC050
      TEMPO 1617/1619 BKN015 OVC050
     FM170500 16007KT P6SM -RA OVC018=



000
FTUS46 KSEW 161500 AAA
TAFSEA
TAF AMD
KSEA 161505Z 1615/1718 17009KT P6SM -RA FEW009 BKN020 OVC060
     FM162000 21012KT 4SM -RA BR OVC018
     FM170500 19012KT P6SM -RA OVC025=



000
FTUS46 KSEW 161400 AAA
TAFHQM
TAF AMD
KHQM 161453Z 1615/1712 17008KT 6SM BR FEW007 OVC035
      TEMPO 1615/1618 4SM -RA BR FEW007 OVC025
     FM161800 23012KT 4SM -RA BR SCT005 OVC011
     FM170300 22012KT P6SM -RA BKN012 OVC022=



000
FTUS46 KSEW 161400 AAA
TAFOLM
TAF AMD
KOLM 161427Z 1614/1712 19007KT 6SM BR SCT020 SCT050 OVC090
      TEMPO 1614/1618 4SM -RA BR BKN020 OVC050
     FM161800 20012KT P6SM -RA BKN015 OVC030
     FM170200 20010KT 6SM -RA BR OVC028=



000
FTUS46 KSEW 161100
TAFBFI
TAF
KBFI 161120Z 1612/1712 16009KT P6SM -RA BKN017 OVC050
     FM162000 16012KT 5SM -RA BR OVC022
     FM170500 16010KT P6SM -RA OVC028=



000
FTUS46 KSEW 161100
TAFCLM
TAF
KCLM 161120Z 1612/1712 00000KT P6SM OVC090
      TEMPO 1613/1617 -RA BKN030 OVC060
     FM161700 07004KT P6SM -RA SCT015 OVC030
     FM170100 26006KT P6SM -RA OVC025=



000
FTUS46 KSEW 161100
TAFPAE
TAF
KPAE 161120Z 1612/1712 19009KT P6SM -RA OVC012
     FM161500 18014KT P6SM -RA SCT008 OVC013
      TEMPO 1615/1619 5SM -RA BR OVC008
     FM170300 19012KT 6SM -RA BR OVC018=



000
FTUS46 KSEW 161100
TAFOLM
TAF
KOLM 161120Z 1612/1712 19007KT P6SM SCT010 OVC025
      TEMPO 1612/1616 -RA BKN010 OVC020
     FM161600 20012KT P6SM -RA BKN015 OVC030
      TEMPO 1616/1619 4SM BR OVC015
     FM170200 20010KT 6SM -RA BR OVC028=



000
FTUS46 KSEW 161100
TAFHQM
TAF
KHQM 161120Z 1612/1712 20009KT P6SM -RA SCT009 OVC016
      TEMPO 1612/1616 4SM -RA BR BKN009 OVC016
     FM161600 23012KT 4SM -RA BR SCT005 OVC011
     FM170300 22012KT P6SM -RA BKN012 OVC022=



000
FTUS46 KSEW 161100
TAFSEA
TAF
KSEA 161120Z 1612/1718 20010KT P6SM -RA BKN016 BKN023 OVC050
     FM162000 21012KT 4SM -RA BR OVC018
     FM170500 19012KT P6SM -RA OVC025=



000
FTUS46 KSEW 161100
TAFBLI
TAF
KBLI 161120Z 1612/1712 16008KT P6SM -RA SCT015 BKN030 OVC050
      TEMPO 1613/1617 -RA BKN015 OVC030
     FM161700 16007KT 4SM -RA OVC014
     FM170500 16007KT P6SM -RA OVC018=



000
FTUS46 KSEW 160900 AAA
TAFOLM
TAF AMD
KOLM 160935Z 1610/1706 18008KT P6SM -RA OVC030
      TEMPO 1610/1614 4SM -RA BR BKN015 OVC030
     FM161400 20012KT 4SM -RA BR OVC018
     FM170000 20010KT 6SM -RA BR OVC028=



000
FTUS46 KSEW 160700 AAA
TAFHQM
TAF AMD
KHQM 160722Z 1607/1706 19012KT 5SM -RA BKN008 BKN018 OVC028
     FM161400 22012KT 4SM -RA BR SCT005 OVC011
     FM162000 22012KT P6SM -RA BKN022 OVC035=



000
FTUS46 KSEW 160500
TAFHQM
TAF
KHQM 160520Z 1606/1706 19012KT 5SM -RA BKN012 OVC022
     FM161500 22012KT 4SM -RA BR SCT005 OVC011=



000
FTUS46 KSEW 160500
TAFCLM
TAF
KCLM 160520Z 1606/1706 VRB04KT P6SM -RA BKN035 OVC050
     FM161600 07004KT 6SM -RA BR OVC025
     FM170100 26006KT P6SM -RA OVC025=



000
FTUS46 KSEW 160500
TAFOLM
TAF
KOLM 160520Z 1606/1706 22008KT P6SM -RA BKN030 OVC045
     FM160900 22008KT P6SM -RA OVC030
     FM161600 20012KT 4SM -RA BR OVC018
     FM170200 20010KT 6SM -RA BR OVC028=



000
FTUS46 KSEW 160500
TAFPAE
TAF
KPAE 160520Z 1606/1706 20010KT P6SM VCSH SCT030 OVC070
     FM160900 18010KT P6SM -RA OVC028
     FM161800 18012KT 4SM -RA BR OVC013
     FM170300 19012KT 6SM -RA BR OVC018=



000
FTUS46 KSEW 160500
TAFBLI
TAF
KBLI 160520Z 1606/1706 16005KT P6SM -RA BKN040 OVC060
     FM160800 15007KT P6SM -RA OVC028
     FM161900 16007KT 4SM -RA OVC014
     FM170500 16007KT P6SM -RA OVC018=



000
FTUS46 KSEW 160500
TAFSEA
TAF
KSEA 160520Z 1606/1712 24010KT P6SM VCSH SCT030 OVC045
     FM160800 21010KT P6SM -RA OVC028
     FM162000 21012KT 4SM -RA BR OVC018
     FM170500 19012KT P6SM -RA OVC022=



000
FTUS46 KSEW 160500
TAFBFI
TAF
KBFI 160520Z 1606/1706 19006KT P6SM VCSH SCT035 OVC050
     FM160800 16010KT P6SM -RA OVC030
     FM162000 16012KT 5SM -RA BR OVC022
     FM170500 16010KT P6SM -RA OVC028=



000
FTUS46 KSEW 160400 AAB
TAFPAE
TAF AMD
KPAE 160400Z 1604/1624 19012KT P6SM SCT040 OVC070
     FM160500 19012KT P6SM -RA OVC035
     FM160900 17010KT 5SM -RA BR OVC025
     FM162000 17014KT P6SM VCSH OVC020=



000
FTUS46 KSEW 160300 AAA
TAFPAE
TAF AMD
KPAE 160314Z 1603/1624 16007KT P6SM SCT040 OVC090
     FM160500 17011KT P6SM -RA OVC035
     FM160900 17010KT 5SM -RA BR OVC025
     FM162000 17014KT P6SM VCSH OVC020=



000
FTUS46 KSEW 160300 AAA
TAFSEA
TAF AMD
KSEA 160308Z 1603/1706 24010KT P6SM VCSH SCT045 OVC090
     FM160600 19008KT P6SM -RA OVC030
     FM160800 19010KT P6SM -RA OVC022
     FM162000 21008KT P6SM VCSH OVC025=



000
FTUS46 KSEW 160200 AAA
TAFHQM
TAF AMD
KHQM 160258Z 1603/1624 18014KT P6SM -RA SCT018 OVC030
      TEMPO 1603/1606 3SM -RA BR SCT018 OVC025
     FM160600 19010KT 4SM -RA OVC015
     FM162100 20010KT P6SM VCSH OVC025=



000
FTUS46 KSEW 160200 AAA
TAFOLM
TAF AMD
KOLM 160224Z 1602/1624 24010KT P6SM BKN040 OVC070
     FM160300 20010KT P6SM -RA OVC030
     FM160700 20006KT 4SM -RA OVC015
     FM162000 20011KT P6SM VCSH OVC025=



000
FTUS46 KSEW 152300
TAFCLM
TAF
KCLM 152336Z 1600/1624 04004KT P6SM SCT120 OVC200
     FM160200 04004KT P6SM VCSH BKN050 OVC090
     FM160600 27003KT 6SM -RA OVC035
     FM161900 01003KT P6SM VCSH BKN045=



000
FTUS46 KSEW 152300
TAFOLM
TAF
KOLM 152336Z 1600/1624 26011G16KT P6SM SCT040 BKN090 OVC200
     FM160200 20008KT P6SM -RA BKN030 OVC070
     FM160700 20006KT 4SM -RA OVC015
     FM162000 20011KT P6SM VCSH OVC025=



000
FTUS46 KSEW 152300
TAFPAE
TAF
KPAE 152336Z 1600/1624 17011KT P6SM SCT025 BKN090 OVC200
     FM160300 16007KT P6SM -RA BKN040 OVC090
     FM160700 17011KT 4SM -RA OVC015
     FM162000 17013KT P6SM VCSH OVC020=



000
FTUS46 KSEW 152300
TAFSEA
TAF
KSEA 152336Z 1600/1706 21013KT P6SM SCT030 BKN090 OVC200
     FM160300 21008KT P6SM -RA BKN040 OVC090
     FM160800 19008KT P6SM -RA OVC015
     FM162000 20009KT P6SM VCSH OVC025=



000
FTUS46 KSEW 152300
TAFBLI
TAF
KBLI 152336Z 1600/1624 17009KT P6SM BKN050 BKN120 OVC200
     FM160300 14004KT P6SM -RA OVC040
     FM160800 15007KT P6SM -RA OVC020
     FM162000 16007KT P6SM VCSH OVC025=



000
FTUS46 KSEW 152300
TAFHQM
TAF
KHQM 152336Z 1600/1624 19015KT P6SM -RA BKN022 OVC030
     FM160600 19010KT 4SM -RA OVC015
     FM162100 20010KT P6SM VCSH OVC025=



000
FTUS46 KSEW 152300
TAFBFI
TAF
KBFI 152336Z 1600/1624 19011G15KT P6SM SCT030 BKN090 OVC200
     FM160300 19009KT P6SM -RA BKN045 OVC090
     FM160800 17007KT P6SM -RA OVC020
     FM162000 19009KT P6SM VCSH OVC030=



000
FTUS46 KSEW 152100 AAA
TAFSEA
TAF AMD
KSEA 152102Z 1521/1624 20009KT P6SM VCSH SCT030 BKN090 OVC200
     FM160100 19007KT P6SM -RA OVC025
     FM160800 19009KT P6SM -RA OVC015=



000
FTUS46 KSEW 151700
TAFBFI
TAF
KBFI 151739Z 1518/1618 19009KT P6SM SCT026 BKN200
     FM152200 20008KT P6SM SCT030 BKN090 OVC200
     FM160100 18007KT P6SM -RA OVC030
     FM160800 16007KT P6SM -RA OVC020=



000
FTUS46 KSEW 151700
TAFHQM
TAF
KHQM 151739Z 1518/1618 05004KT P6SM VCSH SCT016 SCT029 OVC050
      TEMPO 1518/1522 4SM -RA SCT015 BKN025 OVC050
     FM152200 21011KT 5SM -RA OVC015
     FM160800 19011KT 4SM -RA OVC007=



000
FTUS46 KSEW 151700
TAFCLM
TAF
KCLM 151739Z 1518/1618 29014G19KT P6SM BKN090 OVC200
     FM160000 27004KT P6SM -RA SCT025 OVC050
     FM160600 24004KT P6SM -RA OVC025=



000
FTUS46 KSEW 151700
TAFSEA
TAF
KSEA 151739Z 1518/1624 21009KT P6SM VCSH SCT028 BKN200
      TEMPO 1518/1522 BKN025 BKN200
     FM152200 19007KT P6SM VCSH SCT030 BKN090 OVC200
     FM160100 19007KT P6SM -RA OVC025
     FM160800 19009KT P6SM -RA OVC015=



000
FTUS46 KSEW 151700
TAFOLM
TAF
KOLM 151739Z 1518/1618 VRB03KT P6SM SCT040 BKN200
     FM152100 23008KT P6SM SCT030 BKN090 OVC200
     FM160000 20006KT P6SM -RA OVC025
     FM160700 20008KT 4SM -RA BR OVC015=



000
FTUS46 KSEW 151700
TAFBLI
TAF
KBLI 151739Z 1518/1618 15011KT P6SM SCT080 BKN200
     FM152300 18009KT P6SM SCT035 BKN090 OVC200
     FM160100 17007KT P6SM -RA SCT025 OVC050
     FM160800 15004KT P6SM -RA OVC025=



000
FTUS46 KSEW 151700
TAFPAE
TAF
KPAE 151739Z 1518/1618 15006KT P6SM VCSH SCT025 BKN050 OVC200
     FM152200 19008KT P6SM OVC050
     FM160100 17010KT P6SM -RA OVC025
     FM160800 18008KT P6SM -RA OVC015=



000
FTUS46 KSEW 151600 AAA
TAFPAE
TAF AMD
KPAE 151611Z 1516/1612 VRB03KT P6SM VCSH SCT025 OVC040
      TEMPO 1516/1518 4SM -SHRA BKN022 OVC030
     FM152300 19010KT P6SM -RA OVC040
     FM160200 14006KT P6SM -RA OVC025=



000
FTUS46 KSEW 151600 AAA
TAFSEA
TAF AMD
KSEA 151610Z 1516/1618 18006KT P6SM VCSH SCT024 BKN035
      TEMPO 1516/1518 -SHRA BKN024 OVC035
     FM152200 22013KT P6SM -RA BKN030 OVC040
     FM160100 21012KT P6SM -RA OVC025
     FM161200 18008KT P6SM -RA OVC025=



000
FTUS46 KSEW 151100
TAFPAE
TAF
KPAE 151121Z 1512/1612 16005KT P6SM VCSH OVC028
     FM151400 14006KT P6SM OVC035
     FM152300 19010KT P6SM -RA OVC040
     FM160200 14006KT P6SM -RA OVC025=



000
FTUS46 KSEW 151100
TAFBLI
TAF
KBLI 151121Z 1512/1612 19006KT P6SM BKN060 BKN120
     FM151400 16008KT P6SM OVC045
     FM152200 18013KT P6SM -SHRA OVC045
     FM160300 16010KT P6SM -RA OVC030=



000
FTUS46 KSEW 151100
TAFHQM
TAF
KHQM 151121Z 1512/1612 27011KT P6SM VCSH BKN035 OVC045
     FM151600 22009KT P6SM -SHRA OVC030
     FM152000 21010KT 6SM -RA BR OVC018
     FM152300 23012KT 5SM -RA BR OVC012
     FM160900 23010KT P6SM -RA OVC022=



000
FTUS46 KSEW 151100
TAFSEA
TAF
KSEA 151121Z 1512/1618 19007KT P6SM VCSH BKN025 OVC040
     FM151600 20008KT P6SM BKN030 OVC040
     FM152200 22013KT P6SM -RA BKN030 OVC040
     FM160100 21012KT P6SM -RA OVC025
     FM161200 18008KT P6SM -RA OVC025=



000
FTUS46 KSEW 151100
TAFOLM
TAF
KOLM 151121Z 1512/1612 24006KT P6SM BKN045 OVC100
     FM152000 19008KT P6SM -SHRA OVC040
     FM160000 21010KT P6SM -RA OVC025
     FM160300 18008KT P6SM -RA OVC018=



000
FTUS46 KSEW 151100
TAFCLM
TAF
KCLM 151121Z 1512/1612 30008KT P6SM BKN045 OVC100
     FM152000 31005KT P6SM -SHRA OVC045
     FM160200 27006KT P6SM -RA OVC035=



000
FTUS46 KSEW 151100
TAFBFI
TAF
KBFI 151121Z 1512/1612 13006KT P6SM VCSH BKN030 BKN100
     FM151400 16007KT P6SM OVC040
     FM152200 18010KT P6SM -RA OVC040
     FM160100 16008KT P6SM -RA OVC028=



000
FTUS46 KSEW 150800 AAA
TAFSEA
TAF AMD
KSEA 150829Z 1508/1612 20006KT P6SM BKN025 OVC035
     FM151400 20008KT P6SM BKN030 OVC045
     FM152100 21013KT P6SM -SHRA BKN030 OVC045
     FM160200 21013KT P6SM -RA OVC030=



000
FTUS46 KSEW 150800 AAA
TAFPAE
TAF AMD
KPAE 150827Z 1508/1606 VRB04KT P6SM OVC028
     FM151400 14006KT P6SM OVC035
     FM152200 18010KT P6SM -SHRA OVC045
     FM160300 16008KT P6SM -RA OVC030=



000
FTUS46 KSEW 150500
TAFPAE
TAF
KPAE 150520Z 1506/1606 36010KT P6SM BKN060 OVC100
     FM150900 09006KT P6SM OVC045
     FM151400 14007KT P6SM OVC045
     FM152200 18010KT P6SM -SHRA OVC045
     FM160300 16008KT P6SM -RA OVC030=



000
FTUS46 KSEW 150500
TAFCLM
TAF
KCLM 150520Z 1506/1606 28012G20KT P6SM SCT060 BKN120 BKN200
     FM150900 27010KT P6SM OVC060
     FM151200 28005KT P6SM OVC050
     FM152000 VRB04KT P6SM -SHRA OVC045
     FM160200 27006KT P6SM -RA OVC035=



000
FTUS46 KSEW 150500
TAFSEA
TAF
KSEA 150520Z 1506/1612 21010KT P6SM SCT030 BKN100 BKN200
      TEMPO 1506/1510 BKN030 BKN100 BKN200
     FM151000 20008KT P6SM BKN040 BKN100
     FM151400 21010KT P6SM OVC045
     FM152100 21013KT P6SM -SHRA OVC045
     FM160200 21013KT P6SM -RA OVC030=



000
FTUS46 KSEW 150500
TAFOLM
TAF
KOLM 150520Z 1506/1606 21012G20KT P6SM FEW040 SCT120 BKN200
     FM150900 20007KT P6SM SCT040 BKN120 OVC200
     FM151200 16007KT P6SM OVC040
     FM152000 18010KT P6SM -SHRA OVC040
     FM160000 18008KT P6SM -RA OVC030
     FM160300 20010KT P6SM -RA OVC022=



000
FTUS46 KSEW 150500
TAFBFI
TAF
KBFI 150520Z 1506/1606 16005KT P6SM SCT028 BKN100 BKN200
      TEMPO 1506/1510 BKN028 BKN100 BKN200
     FM151000 14005KT P6SM BKN040 BKN100
     FM151400 16007KT P6SM OVC045
     FM152100 18010KT P6SM -SHRA OVC045
     FM160200 16008KT P6SM -RA OVC035=



000
FTUS46 KSEW 150500
TAFHQM
TAF
KHQM 150520Z 1506/1606 27011KT P6SM OVC020
     FM151500 22009KT P6SM -SHRA OVC025
     FM152000 21010KT 6SM -RA BR OVC018
     FM152300 23012KT 6SM -RA BR OVC012=



000
FTUS46 KSEW 150500
TAFBLI
TAF
KBLI 150520Z 1506/1606 18014G22KT P6SM SCT090 BKN200
     FM150900 17008KT P6SM BKN090 BKN200
     FM151400 16008KT P6SM OVC045
     FM152000 18013KT P6SM -SHRA OVC045
     FM160300 16010KT P6SM -RA OVC035=



000
FTUS46 KSEW 150200 AAA
TAFBFI
TAF AMD
KBFI 150205Z 1502/1524 36010KT P6SM SCT040 SCT120 BKN180
     FM150500 19010KT P6SM SCT040 OVC100
     FM151000 18006KT P6SM OVC050
     FM151400 21009KT P6SM VCSH OVC050=



000
FTUS46 KSEW 150200 AAA
TAFSEA
TAF AMD
KSEA 150204Z 1502/1606 27010KT P6SM SCT040 SCT120 BKN200
     FM150400 22014G20KT P6SM SCT040 BKN100
     FM151000 20010KT P6SM OVC045
     FM151400 21010KT P6SM VCSH OVC045=



000
FTUS46 KSEW 142300
TAFPAE
TAF
KPAE 142333Z 1500/1524 36009G18KT P6SM SCT120 BKN200
     FM150400 36007KT P6SM OVC100
     FM150900 19007KT P6SM OVC025
     FM151400 19004KT P6SM VCSH OVC025=



000
FTUS46 KSEW 142300
TAFOLM
TAF
KOLM 142333Z 1500/1524 24012G20KT P6SM SCT120 BKN200
     FM150700 20007KT P6SM BKN035 OVC090
     FM151400 22007KT P6SM VCSH OVC035=



000
FTUS46 KSEW 142300
TAFSEA
TAF
KSEA 142333Z 1500/1606 22015G18KT P6SM SCT120 BKN200
     FM150400 22009KT P6SM BKN100
     FM151000 20010KT P6SM OVC045
     FM151400 21010KT P6SM VCSH OVC045=



000
FTUS46 KSEW 142300
TAFBLI
TAF
KBLI 142333Z 1500/1524 17010G15KT P6SM SCT120 BKN200
     FM150500 18014KT P6SM OVC100
     FM150800 17008KT P6SM BKN050
     FM151400 18008KT P6SM VCSH BKN050=



000
FTUS46 KSEW 142300
TAFCLM
TAF
KCLM 142333Z 1500/1524 29018G26KT P6SM SCT120 BKN200
     FM150500 28015G22KT P6SM SCT050 OVC090
     FM150800 27014KT P6SM OVC045
     FM151300 31006KT P6SM VCSH OVC040=



000
FTUS46 KSEW 142300
TAFBFI
TAF
KBFI 142333Z 1500/1524 18009KT P6SM SCT120 BKN180
     FM150400 18007KT P6SM OVC100
     FM151000 18006KT P6SM OVC050
     FM151400 21009KT P6SM VCSH OVC050=



000
FTUS46 KSEW 142300
TAFHQM
TAF
KHQM 142333Z 1500/1524 27015G25KT P6SM BKN019 BKN120 OVC200
     FM150300 27011KT P6SM OVC020
     FM151100 26009KT P6SM -RA OVC025=



000
FTUS46 KSEW 142100 AAA
TAFSEA
TAF AMD
KSEA 142108Z 1421/1524 21009KT P6SM BKN110 BKN240
     FM150200 18010G18KT P6SM OVC100
     FM150700 19009KT P6SM OVC045=



    US Dept of Commerce
    National Oceanic and Atmospheric Administration
    National Weather Service
    1325 East West Highway
    Silver Spring, MD 20910
    Page Author: NWS Internet Services Team
Disclaimer
Information Quality
Credits
Glossary
Privacy Policy
Freedom of Information Act (FOIA)
About Us
Career Opportunities